Time;durP1;ratioP1;P1;durP2;ratioP2;P2;SDS_P1;SDS_P2;PMS_P1;PMS_P2;Temp;Humidity;BMP_temperature;BMP_pressure;BME280_temperature;BME280_humidity;BME280_pressure;Samples;Min_cycle;Max_cycle;Signal;HPM_P1;HPM_P2
2023/01/15 00:01:36;;;;;;;0.80;0.80;;;9.70;99.90;;;;;;6116425;23;20175;-70
2023/01/15 00:04:05;;;;;;;1.00;0.90;;;9.70;99.90;;;;;;6092444;23;20195;-71
2023/01/15 00:06:38;;;;;;;1.40;1.10;;;9.70;99.90;;;;;;6119789;23;20243;-71
2023/01/15 00:09:07;;;;;;;1.17;1.07;;;9.70;99.90;;;;;;6157279;23;20516;-71
2023/01/15 00:11:34;;;;;;;2.30;1.10;;;9.70;99.90;;;;;;6154367;23;20192;-71
2023/01/15 00:14:00;;;;;;;1.30;1.10;;;9.70;99.90;;;;;;6116736;23;20553;-71
2023/01/15 00:16:27;;;;;;;1.67;1.20;;;9.80;99.90;;;;;;6154297;23;20187;-71
2023/01/15 00:19:00;;;;;;;3.23;1.27;;;9.80;99.90;;;;;;6120862;23;20615;-71
2023/01/15 00:21:28;;;;;;;1.77;1.07;;;9.90;99.90;;;;;;6121379;23;20189;-71
2023/01/15 00:29:26;;;;;;;1.33;0.90;;;9.90;99.90;;;;;;6157245;23;20156;-71
2023/01/15 00:32:01;;;;;;;1.50;0.90;;;9.90;99.90;;;;;;6115959;23;20161;-71
2023/01/15 00:34:28;;;;;;;2.17;1.20;;;9.90;99.90;;;;;;6121181;23;20280;-70
2023/01/15 00:36:58;;;;;;;1.00;0.90;;;9.90;99.90;;;;;;6157663;23;20165;-71
2023/01/15 00:39:25;;;;;;;2.40;0.97;;;9.90;99.90;;;;;;6097037;23;20861;-71
2023/01/15 00:41:53;;;;;;;1.17;0.87;;;9.90;99.90;;;;;;6151614;23;20153;-71
2023/01/15 00:44:22;;;;;;;1.47;1.00;;;9.90;99.90;;;;;;6156881;23;20263;-71
2023/01/15 00:46:49;;;;;;;0.97;0.80;;;9.90;99.90;;;;;;6128953;23;20197;-71
2023/01/15 00:49:16;;;;;;;2.60;1.00;;;9.90;99.90;;;;;;6119943;23;20192;-71
2023/01/15 00:51:43;;;;;;;1.00;0.90;;;9.90;99.90;;;;;;6156442;23;20192;-70
2023/01/15 00:54:09;;;;;;;1.63;1.00;;;9.90;99.90;;;;;;6120478;23;20236;-70
2023/01/15 00:56:35;;;;;;;1.00;0.90;;;9.90;99.90;;;;;;6156257;23;20161;-71
2023/01/15 00:59:04;;;;;;;1.30;0.90;;;9.90;99.90;;;;;;6153915;23;20163;-71
2023/01/15 01:01:30;;;;;;;4.57;0.70;;;9.90;99.90;;;;;;6155737;23;20165;-71
2023/01/15 01:03:56;;;;;;;1.00;0.90;;;9.90;99.90;;;;;;6119780;23;20161;-70
2023/01/15 01:06:25;;;;;;;1.17;0.80;;;9.90;99.90;;;;;;6155017;23;20591;-71
2023/01/15 01:08:51;;;;;;;0.90;0.73;;;9.80;99.90;;;;;;6154462;23;20260;-71
2023/01/15 01:11:25;;;;;;;2.30;0.80;;;9.80;99.90;;;;;;6156195;23;20276;-71
2023/01/15 01:13:54;;;;;;;2.10;0.83;;;9.80;99.90;;;;;;6121132;23;20507;-70
2023/01/15 01:16:36;;;;;;;4.53;0.80;;;9.90;99.90;;;;;;6094288;23;20643;-71
2023/01/15 01:19:10;;;;;;;3.33;1.30;;;9.80;99.90;;;;;;6155051;23;20223;-71
2023/01/15 01:21:38;;;;;;;1.00;0.90;;;9.90;99.90;;;;;;6153757;23;20637;-70
2023/01/15 01:24:07;;;;;;;0.93;0.90;;;9.90;99.90;;;;;;6119458;23;20165;-71
2023/01/15 01:26:34;;;;;;;4.23;1.00;;;9.90;99.90;;;;;;6144092;23;20188;-71
2023/01/15 01:29:00;;;;;;;3.73;1.20;;;9.90;99.90;;;;;;6154824;23;20157;-71
2023/01/15 01:31:26;;;;;;;1.50;1.20;;;9.90;99.90;;;;;;6119158;23;20165;-70
2023/01/15 01:33:56;;;;;;;3.57;0.97;;;9.90;99.90;;;;;;6121177;23;20153;-69
2023/01/15 01:36:35;;;;;;;1.53;1.00;;;9.90;99.90;;;;;;6155059;23;20721;-69
2023/01/15 01:39:04;;;;;;;1.20;1.00;;;9.90;99.90;;;;;;6157667;23;20508;-70
2023/01/15 01:41:31;;;;;;;1.07;0.97;;;9.80;99.90;;;;;;6121222;23;20171;-70
2023/01/15 01:44:07;;;;;;;1.30;1.00;;;9.90;99.90;;;;;;6120343;23;20247;-70
2023/01/15 01:46:35;;;;;;;1.10;1.00;;;9.90;99.90;;;;;;6119673;23;20748;-70
2023/01/15 01:49:07;;;;;;;2.83;1.00;;;9.90;99.90;;;;;;6120108;23;20160;-70
2023/01/15 01:51:41;;;;;;;0.67;0.67;;;9.80;99.90;;;;;;6156034;23;20160;-70
2023/01/15 01:54:12;;;;;;;0.80;0.77;;;9.90;99.90;;;;;;6155029;23;21087;-69
2023/01/15 01:56:38;;;;;;;2.10;0.90;;;9.90;99.90;;;;;;6156684;23;20219;-71
2023/01/15 01:59:07;;;;;;;1.40;0.87;;;9.90;99.90;;;;;;6156942;23;20539;-71
2023/01/15 02:01:34;;;;;;;0.77;0.73;;;9.80;99.90;;;;;;6119279;23;20165;-71
2023/01/15 02:04:08;;;;;;;1.77;0.80;;;9.90;99.90;;;;;;6155585;23;20234;-70
2023/01/15 02:06:37;;;;;;;1.33;0.90;;;9.90;99.90;;;;;;6156893;23;20196;-70
2023/01/15 02:09:05;;;;;;;0.70;0.67;;;9.80;99.90;;;;;;6156225;23;20295;-70
2023/01/15 02:11:33;;;;;;;1.77;0.70;;;9.80;99.90;;;;;;6156896;23;20157;-71
2023/01/15 02:14:14;;;;;;;1.77;0.90;;;9.70;99.90;;;;;;6155082;23;20157;-70
2023/01/15 02:16:59;;;;;;;1.30;0.90;;;9.70;99.90;;;;;;6155101;23;20226;-71
2023/01/15 02:19:52;;;;;;;0.90;0.90;;;9.60;99.90;;;;;;6120334;23;20243;-71
2023/01/15 02:22:51;;;;;;;1.87;0.97;;;9.60;99.90;;;;;;6119378;23;20193;-70
2023/01/15 02:25:42;;;;;;;1.23;0.90;;;9.60;99.90;;;;;;6095779;23;20165;-74
2023/01/15 02:28:29;;;;;;;1.77;0.90;;;9.60;99.90;;;;;;6118553;23;20189;-74
2023/01/15 02:31:37;;;;;;;0.80;0.80;;;9.60;99.90;;;;;;6119437;23;20223;-74
2023/01/15 02:34:15;;;;;;;1.17;0.90;;;9.60;99.90;;;;;;6117746;23;20165;-74
2023/01/15 02:36:49;;;;;;;1.70;0.97;;;9.50;99.90;;;;;;6120369;23;20838;-74
2023/01/15 02:39:20;;;;;;;1.00;0.90;;;9.50;99.90;;;;;;6156522;23;20156;-74
2023/01/15 02:41:54;;;;;;;1.60;1.13;;;9.60;99.90;;;;;;6156957;23;20183;-74
2023/01/15 02:44:28;;;;;;;1.87;1.00;;;9.60;99.90;;;;;;6156589;23;20162;-74
2023/01/15 02:46:58;;;;;;;2.40;0.80;;;9.50;99.90;;;;;;6143018;23;20181;-74
2023/01/15 02:49:24;;;;;;;1.50;1.10;;;9.50;99.90;;;;;;6156426;23;20168;-74
2023/01/15 02:52:13;;;;;;;1.87;1.40;;;9.50;99.90;;;;;;6144443;23;20277;-73
2023/01/15 02:54:50;;;;;;;0.73;0.73;;;9.50;99.90;;;;;;6156459;23;20208;-73
2023/01/15 02:57:21;;;;;;;1.40;1.00;;;9.50;99.90;;;;;;6119582;23;20167;-73
2023/01/15 02:59:51;;;;;;;1.13;0.70;;;9.50;99.90;;;;;;6120690;23;20243;-73
2023/01/15 03:02:27;;;;;;;0.63;0.63;;;9.60;99.90;;;;;;6118460;23;20184;-73
2023/01/15 03:05:32;;;;;;;0.80;0.73;;;9.60;99.90;;;;;;6155645;23;20164;-73
2023/01/15 03:08:01;;;;;;;0.60;0.60;;;9.60;99.90;;;;;;6119804;23;20177;-73
2023/01/15 03:10:46;;;;;;;1.20;0.73;;;9.70;99.90;;;;;;6156372;23;20219;-73
2023/01/15 03:13:46;;;;;;;1.00;0.90;;;9.70;99.90;;;;;;6156459;23;20184;-74
2023/01/15 03:17:00;;;;;;;0.80;0.80;;;9.70;99.90;;;;;;6111633;23;20260;-73
2023/01/15 03:20:08;;;;;;;0.77;0.77;;;9.70;99.90;;;;;;6065616;23;20471;-74
2023/01/15 03:22:40;;;;;;;1.80;0.80;;;9.70;99.90;;;;;;6089198;23;20191;-73
2023/01/15 03:25:18;;;;;;;0.90;0.77;;;9.70;99.90;;;;;;6119658;23;20591;-73
2023/01/15 03:27:44;;;;;;;3.13;1.00;;;9.70;99.90;;;;;;6119704;23;20615;-74
2023/01/15 03:30:20;;;;;;;1.23;0.90;;;9.70;99.90;;;;;;6119636;23;20184;-73
2023/01/15 03:32:50;;;;;;;1.10;1.00;;;9.70;99.90;;;;;;6144500;23;20239;-73
2023/01/15 03:35:42;;;;;;;1.53;1.00;;;9.70;99.90;;;;;;6120039;23;20158;-73
2023/01/15 03:38:10;;;;;;;1.20;1.10;;;9.80;99.90;;;;;;6120196;23;20224;-73
2023/01/15 03:41:07;;;;;;;0.83;0.80;;;9.70;99.90;;;;;;6120205;23;20644;-73
2023/01/15 03:44:04;;;;;;;1.10;1.00;;;9.70;99.90;;;;;;6074307;23;20691;-73
2023/01/15 03:47:03;;;;;;;1.00;0.90;;;9.60;99.90;;;;;;6096912;23;20199;-73
2023/01/15 03:50:03;;;;;;;1.67;0.73;;;9.50;99.90;;;;;;6121696;23;20188;-73
2023/01/15 03:53:02;;;;;;;1.70;1.10;;;9.50;99.90;;;;;;6097048;23;20260;-73
2023/01/15 03:55:57;;;;;;;1.37;0.90;;;9.50;99.90;;;;;;6156846;23;20172;-73
2023/01/15 03:58:44;;;;;;;0.90;0.80;;;9.40;99.90;;;;;;6157496;23;20146;-73
2023/01/15 04:01:16;;;;;;;2.40;0.90;;;9.40;99.90;;;;;;6121008;23;20160;-73
2023/01/15 04:03:44;;;;;;;2.00;1.10;;;9.40;99.90;;;;;;6156258;23;20164;-73
2023/01/15 04:06:11;;;;;;;1.10;1.00;;;9.40;99.90;;;;;;6120507;23;20635;-73
2023/01/15 04:08:42;;;;;;;1.13;1.03;;;9.40;99.90;;;;;;6158176;23;20284;-73
2023/01/15 04:11:08;;;;;;;1.20;1.03;;;9.40;99.90;;;;;;6121803;23;20221;-73
2023/01/15 04:13:34;;;;;;;1.03;0.93;;;9.40;99.90;;;;;;6157118;23;20547;-71
2023/01/15 04:16:01;;;;;;;1.40;1.20;;;9.50;99.90;;;;;;6157048;23;20167;-71
2023/01/15 04:18:28;;;;;;;2.03;1.10;;;9.50;99.90;;;;;;6144976;23;20184;-73
2023/01/15 04:20:54;;;;;;;1.50;1.20;;;9.50;99.90;;;;;;6121294;23;20156;-73
2023/01/15 04:23:22;;;;;;;2.17;0.93;;;9.50;99.90;;;;;;6158035;23;20187;-73
2023/01/15 04:25:48;;;;;;;1.10;1.00;;;9.50;99.90;;;;;;6154361;23;20164;-73
2023/01/15 04:28:14;;;;;;;2.57;1.00;;;9.50;99.90;;;;;;6096345;23;20160;-74
2023/01/15 04:30:42;;;;;;;2.37;1.00;;;9.40;99.90;;;;;;6122198;23;20161;-73
2023/01/15 04:33:10;;;;;;;4.20;1.10;;;9.40;99.90;;;;;;6157163;23;20239;-74
2023/01/15 04:35:38;;;;;;;1.77;1.10;;;9.40;99.90;;;;;;6119958;23;20168;-74
2023/01/15 04:38:04;;;;;;;3.87;1.30;;;9.30;99.90;;;;;;6121922;23;20161;-74
2023/01/15 04:46:03;;;;;;;1.20;1.10;;;9.30;99.90;;;;;;6157283;23;20176;-73
2023/01/15 04:48:30;;;;;;;2.70;1.20;;;9.30;99.90;;;;;;6121598;23;20523;-73
2023/01/15 04:50:56;;;;;;;1.63;1.17;;;9.30;99.90;;;;;;6157224;23;20190;-73
2023/01/15 04:53:22;;;;;;;2.73;1.17;;;9.30;99.90;;;;;;6121036;23;20264;-73
2023/01/15 04:55:48;;;;;;;3.00;1.10;;;9.30;99.90;;;;;;6119999;23;20161;-73
2023/01/15 04:58:18;;;;;;;4.03;1.07;;;9.20;99.90;;;;;;6121081;23;20165;-73
2023/01/15 05:00:47;;;;;;;1.80;1.13;;;9.20;99.90;;;;;;6144318;23;20167;-73
2023/01/15 05:03:13;;;;;;;2.03;1.30;;;9.20;99.90;;;;;;6154932;23;20436;-72
2023/01/15 05:05:39;;;;;;;1.00;0.90;;;9.20;99.90;;;;;;6096318;23;20542;-73
2023/01/15 05:08:05;;;;;;;1.13;1.03;;;9.20;99.90;;;;;;6146039;23;20183;-73
2023/01/15 05:10:32;;;;;;;3.30;1.20;;;9.20;99.90;;;;;;6156319;23;20161;-73
2023/01/15 05:12:58;;;;;;;1.23;1.10;;;9.20;99.90;;;;;;6096610;23;20180;-73
2023/01/15 05:15:28;;;;;;;4.20;1.13;;;9.20;99.90;;;;;;6096735;23;20224;-73
2023/01/15 05:17:55;;;;;;;1.10;1.00;;;9.20;99.90;;;;;;6119837;23;20172;-73
2023/01/15 05:20:22;;;;;;;1.13;1.03;;;9.20;99.90;;;;;;6121294;23;20169;-73
2023/01/15 05:22:48;;;;;;;1.70;1.23;;;9.20;99.90;;;;;;6121328;23;20168;-73
2023/01/15 05:25:15;;;;;;;1.40;1.00;;;9.20;99.90;;;;;;6119132;23;20168;-73
2023/01/15 05:27:41;;;;;;;1.20;1.10;;;9.20;99.90;;;;;;6157392;23;20587;-73
2023/01/15 05:30:11;;;;;;;1.37;1.20;;;9.20;99.90;;;;;;6157557;23;20157;-73
2023/01/15 05:32:38;;;;;;;2.87;1.47;;;9.30;99.90;;;;;;6155650;23;20634;-73
2023/01/15 05:35:04;;;;;;;2.40;1.30;;;9.30;99.90;;;;;;6120287;23;20165;-73
2023/01/15 05:37:31;;;;;;;1.23;1.10;;;9.30;99.90;;;;;;6118751;23;20165;-73
2023/01/15 05:39:57;;;;;;;1.10;1.00;;;9.30;99.90;;;;;;6145142;23;20254;-72
2023/01/15 05:42:25;;;;;;;2.57;1.20;;;9.40;99.90;;;;;;6145995;23;20191;-73
2023/01/15 05:44:51;;;;;;;1.97;1.20;;;9.40;99.90;;;;;;6156274;23;20476;-73
2023/01/15 05:47:17;;;;;;;1.93;1.13;;;9.40;99.90;;;;;;6155705;23;20220;-73
2023/01/15 05:49:43;;;;;;;1.50;1.10;;;9.50;99.90;;;;;;6156242;23;20168;-73
2023/01/15 05:52:10;;;;;;;1.93;1.10;;;9.50;99.90;;;;;;6156745;23;20248;-74
2023/01/15 05:54:36;;;;;;;1.77;1.17;;;9.50;99.90;;;;;;6155923;23;20172;-73
2023/01/15 05:57:03;;;;;;;1.40;1.07;;;9.50;99.90;;;;;;6120483;23;20634;-73
2023/01/15 05:59:32;;;;;;;1.33;1.10;;;9.60;99.90;;;;;;6120721;23;20265;-74
2023/01/15 06:02:00;;;;;;;1.47;1.00;;;9.60;99.90;;;;;;6118945;23;20164;-73
2023/01/15 06:04:26;;;;;;;1.97;1.00;;;9.60;99.90;;;;;;6119559;23;20619;-73
2023/01/15 06:06:55;;;;;;;4.47;1.30;;;9.70;99.90;;;;;;6157294;23;20510;-73
2023/01/15 06:09:23;;;;;;;1.47;1.20;;;9.70;99.90;;;;;;6157109;23;20610;-73
2023/01/15 06:11:50;;;;;;;4.50;1.40;;;9.70;99.90;;;;;;6155837;23;20153;-73
2023/01/15 06:14:17;;;;;;;3.53;1.30;;;9.80;99.90;;;;;;6155168;23;20491;-74
2023/01/15 06:16:43;;;;;;;1.23;1.13;;;9.80;99.90;;;;;;6143128;23;20177;-73
2023/01/15 06:19:13;;;;;;;2.60;1.27;;;9.80;99.90;;;;;;6119753;23;20251;-73
2023/01/15 06:21:40;;;;;;;3.03;1.10;;;9.90;99.90;;;;;;6119186;23;20172;-73
2023/01/15 06:24:07;;;;;;;4.00;1.20;;;9.90;99.90;;;;;;6117630;23;20326;-73
2023/01/15 06:26:35;;;;;;;1.60;1.10;;;9.90;99.90;;;;;;6095939;23;20191;-73
2023/01/15 06:29:01;;;;;;;2.47;1.20;;;10.00;99.90;;;;;;6155638;23;20157;-73
2023/01/15 06:31:27;;;;;;;3.13;1.13;;;10.00;99.90;;;;;;6095422;23;20165;-73
2023/01/15 06:33:54;;;;;;;1.67;1.20;;;10.10;99.90;;;;;;6097404;23;20168;-73
2023/01/15 06:36:24;;;;;;;1.83;1.30;;;10.10;99.90;;;;;;6155783;23;20163;-73
2023/01/15 06:38:57;;;;;;;1.83;1.20;;;10.10;99.90;;;;;;6156235;23;20160;-72
2023/01/15 06:47:19;;;;;;;1.10;1.00;;;10.30;99.90;;;;;;6155740;23;20460;-73
2023/01/15 06:49:52;;;;;;;1.67;1.30;;;10.40;99.90;;;;;;6120954;23;20227;-73
2023/01/15 06:52:18;;;;;;;1.47;1.30;;;10.50;99.90;;;;;;6155935;23;20255;-73
2023/01/15 06:54:45;;;;;;;1.53;1.20;;;10.50;99.90;;;;;;6154800;23;20153;-73
2023/01/15 06:57:12;;;;;;;1.40;1.30;;;10.60;99.90;;;;;;6120233;23;20172;-73
2023/01/15 06:59:43;;;;;;;1.93;1.27;;;10.60;99.90;;;;;;6120510;23;20566;-73
2023/01/15 07:02:14;;;;;;;2.70;1.70;;;10.60;99.90;;;;;;6117835;23;20165;-74
2023/01/15 07:04:41;;;;;;;3.00;1.30;;;10.70;99.90;;;;;;6155738;23;20586;-74
2023/01/15 07:07:08;;;;;;;1.50;1.40;;;10.70;99.90;;;;;;6156576;23;20635;-73
2023/01/15 07:09:34;;;;;;;2.77;2.00;;;10.70;99.90;;;;;;6144797;23;20223;-73
2023/01/15 07:12:00;;;;;;;1.80;1.40;;;10.80;99.90;;;;;;6119728;23;20192;-73
2023/01/15 07:14:28;;;;;;;1.70;1.50;;;10.80;99.90;;;;;;6155738;23;20149;-73
2023/01/15 07:16:55;;;;;;;1.90;1.60;;;10.80;99.90;;;;;;6118951;23;20244;-73
2023/01/15 07:19:22;;;;;;;1.43;1.23;;;10.80;99.90;;;;;;6156025;23;20472;-73
2023/01/15 07:21:49;;;;;;;1.50;1.40;;;10.90;99.90;;;;;;6156359;23;20503;-73
2023/01/15 07:24:16;;;;;;;1.50;1.30;;;10.90;99.90;;;;;;6156141;23;20520;-73
2023/01/15 07:26:46;;;;;;;2.37;1.50;;;11.00;99.90;;;;;;6145905;23;20193;-73
2023/01/15 07:29:14;;;;;;;4.73;1.40;;;11.00;99.90;;;;;;6158123;23;20179;-73
2023/01/15 07:31:40;;;;;;;1.83;1.30;;;11.00;99.90;;;;;;6120783;23;20161;-73
2023/01/15 07:34:07;;;;;;;1.83;1.33;;;11.00;99.90;;;;;;6095788;23;20164;-73
2023/01/15 07:36:35;;;;;;;1.60;1.30;;;11.10;99.90;;;;;;6121913;23;20171;-73
2023/01/15 07:39:09;;;;;;;1.37;1.20;;;11.10;99.90;;;;;;6145555;23;20161;-73
2023/01/15 07:50:20;;;;;;;1.33;1.23;;;11.20;99.90;;;;;;6120882;23;20161;-73
2023/01/15 07:52:46;;;;;;;1.40;1.30;;;11.20;99.90;;;;;;6121565;23;20267;-73
2023/01/15 07:55:13;;;;;;;1.40;1.30;;;11.20;99.90;;;;;;6144693;23;20168;-73
2023/01/15 07:57:43;;;;;;;2.80;1.17;;;11.30;99.90;;;;;;6156134;23;20498;-73
2023/01/15 08:00:18;;;;;;;1.53;1.10;;;11.30;99.90;;;;;;6120739;23;20192;-73
2023/01/15 08:02:48;;;;;;;2.20;1.20;;;11.30;99.90;;;;;;6117276;23;20573;-73
2023/01/15 08:05:15;;;;;;;1.33;1.20;;;11.40;99.90;;;;;;6153948;23;20476;-73
2023/01/15 08:07:42;;;;;;;1.30;1.20;;;11.40;99.90;;;;;;6156042;23;20210;-73
2023/01/15 08:10:12;;;;;;;1.30;1.20;;;11.40;99.90;;;;;;6119914;23;20157;-73
2023/01/15 08:15:24;;;;;;;1.40;1.30;;;11.40;99.90;;;;;;6120578;23;20161;-73
2023/01/15 08:17:52;;;;;;;1.40;1.17;;;11.40;99.90;;;;;;6156227;23;20482;-73
2023/01/15 08:20:26;;;;;;;1.27;1.17;;;11.50;99.90;;;;;;6158151;23;20587;-73
2023/01/15 08:22:52;;;;;;;2.17;1.13;;;11.50;99.90;;;;;;6121730;23;20575;-73
2023/01/15 08:25:23;;;;;;;1.30;1.20;;;11.60;99.90;;;;;;6094637;23;20168;-73
2023/01/15 08:27:51;;;;;;;1.70;1.37;;;11.60;99.90;;;;;;6154942;23;20537;-73
2023/01/15 08:30:22;;;;;;;1.70;1.23;;;11.70;99.90;;;;;;6156251;23;20164;-73
2023/01/15 08:32:49;;;;;;;1.40;1.20;;;11.70;99.90;;;;;;6120425;23;20255;-73
2023/01/15 08:35:15;;;;;;;1.23;1.13;;;11.70;99.90;;;;;;6153818;23;20259;-72
2023/01/15 08:37:43;;;;;;;3.30;1.00;;;11.80;99.90;;;;;;6155551;23;20157;-73
2023/01/15 08:40:11;;;;;;;1.67;1.10;;;11.80;99.90;;;;;;6121525;23;20169;-73
2023/01/15 08:42:38;;;;;;;2.17;1.10;;;11.80;99.90;;;;;;6156057;23;20621;-73
2023/01/15 08:45:09;;;;;;;3.00;1.17;;;11.80;99.90;;;;;;6119941;23;20160;-73
2023/01/15 08:47:36;;;;;;;1.07;0.97;;;11.90;99.90;;;;;;6155424;23;20224;-73
2023/01/15 08:50:04;;;;;;;0.93;0.90;;;11.90;99.90;;;;;;6121056;23;20666;-73
2023/01/15 08:52:30;;;;;;;1.00;0.90;;;11.90;99.90;;;;;;6143351;23;20607;-73
2023/01/15 08:54:56;;;;;;;1.43;1.10;;;11.90;99.90;;;;;;6117990;23;20172;-73
2023/01/15 08:57:23;;;;;;;1.40;1.03;;;11.90;99.90;;;;;;6094864;23;20196;-73
2023/01/15 08:59:49;;;;;;;1.20;1.00;;;12.00;99.90;;;;;;6095614;23;20173;-73
2023/01/15 09:02:16;;;;;;;1.30;1.00;;;12.00;99.90;;;;;;6150533;23;20705;-73
2023/01/15 09:04:42;;;;;;;1.27;1.10;;;12.00;99.90;;;;;;6116537;23;20231;-73
2023/01/15 09:07:11;;;;;;;1.20;1.10;;;12.00;99.90;;;;;;6155000;23;20197;-73
2023/01/15 09:09:38;;;;;;;1.67;1.10;;;12.00;99.90;;;;;;6141994;23;20161;-73
2023/01/15 09:12:04;;;;;;;2.07;1.00;;;12.00;99.90;;;;;;6155706;23;20687;-73
2023/01/15 09:14:31;;;;;;;1.53;0.90;;;12.10;99.90;;;;;;6118908;23;20602;-73
2023/01/15 09:17:00;;;;;;;1.20;1.03;;;12.10;99.90;;;;;;6116318;23;20259;-73
2023/01/15 09:19:26;;;;;;;1.67;1.07;;;12.10;99.90;;;;;;6153490;23;20204;-73
2023/01/15 09:21:52;;;;;;;4.30;1.20;;;12.20;99.90;;;;;;6150618;23;20490;-73
2023/01/15 09:24:19;;;;;;;1.80;1.17;;;12.20;99.90;;;;;;6114080;23;20161;-73
2023/01/15 09:26:46;;;;;;;1.20;1.10;;;12.20;99.90;;;;;;6115494;23;20192;-73
2023/01/15 09:29:13;;;;;;;1.90;0.93;;;12.30;99.90;;;;;;6114988;23;20248;-73
2023/01/15 09:31:39;;;;;;;1.10;1.00;;;12.30;99.90;;;;;;6142457;23;20602;-73
2023/01/15 09:34:06;;;;;;;1.67;1.10;;;12.30;99.90;;;;;;6151892;23;20161;-73
2023/01/15 09:36:34;;;;;;;1.57;1.30;;;12.40;99.90;;;;;;6118758;23;20165;-73
2023/01/15 09:39:04;;;;;;;1.63;1.00;;;12.40;99.90;;;;;;6095057;23;20164;-73
2023/01/15 09:42:12;;;;;;;1.00;0.90;;;12.40;99.90;;;;;;6154819;23;20169;-73
2023/01/15 09:45:24;;;;;;;1.23;1.00;;;12.50;99.90;;;;;;6118546;23;20161;-73
2023/01/15 09:48:09;;;;;;;1.17;1.07;;;12.50;99.90;;;;;;6117062;23;20188;-73
2023/01/15 09:50:59;;;;;;;1.90;1.00;;;12.60;99.90;;;;;;6120636;23;20461;-73
2023/01/15 09:53:44;;;;;;;1.73;1.20;;;12.60;99.90;;;;;;6116814;23;20184;-73
2023/01/15 09:56:24;;;;;;;2.07;1.60;;;12.60;99.90;;;;;;6118261;23;20300;-73
2023/01/15 09:58:52;;;;;;;2.47;1.60;;;12.60;99.90;;;;;;6119880;23;20191;-73
2023/01/15 10:01:28;;;;;;;3.40;1.90;;;12.60;99.90;;;;;;6155275;23;20168;-73
2023/01/15 10:04:23;;;;;;;3.40;1.97;;;12.60;99.90;;;;;;6153173;23;20253;-73
2023/01/15 10:07:07;;;;;;;4.27;2.30;;;12.70;99.90;;;;;;6093645;23;20193;-73
2023/01/15 10:09:40;;;;;;;5.60;2.60;;;12.70;99.90;;;;;;6118743;23;20165;-73
2023/01/15 10:12:37;;;;;;;3.73;2.17;;;12.80;99.90;;;;;;6120261;23;20191;-73
2023/01/15 10:15:13;;;;;;;2.90;2.20;;;12.80;99.90;;;;;;6091839;23;20192;-73
2023/01/15 10:17:47;;;;;;;2.73;2.10;;;12.80;99.90;;;;;;6116118;23;20180;-73
2023/01/15 10:20:47;;;;;;;2.90;1.70;;;12.80;99.90;;;;;;6155796;23;20286;-73
2023/01/15 10:24:01;;;;;;;2.97;1.70;;;12.90;99.90;;;;;;6156395;23;20656;-73
2023/01/15 10:26:43;;;;;;;1.80;1.50;;;12.90;99.90;;;;;;6053927;23;20539;-73
2023/01/15 10:29:30;;;;;;;3.10;2.00;;;12.90;99.90;;;;;;6117689;23;20168;-73
2023/01/15 10:32:25;;;;;;;3.00;2.40;;;12.90;99.90;;;;;;6152963;23;20171;-73
2023/01/15 10:35:37;;;;;;;3.67;2.30;;;12.90;99.90;;;;;;6153030;23;20164;-73
2023/01/15 10:38:32;;;;;;;4.17;1.77;;;12.90;99.90;;;;;;6117392;23;20693;-73
2023/01/15 10:41:18;;;;;;;2.43;1.80;;;12.90;99.90;;;;;;6153904;23;20239;-73
2023/01/15 10:44:33;;;;;;;1.80;1.60;;;12.90;99.90;;;;;;6155096;23;20500;-73
2023/01/15 10:47:02;;;;;;;1.97;1.63;;;12.90;99.90;;;;;;6122051;23;20788;-73
2023/01/15 10:49:30;;;;;;;2.70;1.60;;;12.90;99.90;;;;;;6119826;23;20262;-73
2023/01/15 10:52:30;;;;;;;1.93;1.60;;;12.90;99.90;;;;;;6154795;23;20484;-73
2023/01/15 10:55:28;;;;;;;1.73;1.60;;;12.90;99.90;;;;;;6155293;23;20846;-73
2023/01/15 10:58:29;;;;;;;1.80;1.50;;;12.90;99.90;;;;;;6139554;23;20145;-73
2023/01/15 11:01:10;;;;;;;2.60;2.10;;;12.90;99.90;;;;;;6117553;23;20163;-73
2023/01/15 11:03:42;;;;;;;4.83;2.20;;;12.90;99.90;;;;;;6141228;23;20168;-73
2023/01/15 11:06:32;;;;;;;2.73;1.97;;;12.90;99.90;;;;;;6092364;23;20211;-73
2023/01/15 11:08:59;;;;;;;2.93;2.40;;;12.90;99.90;;;;;;6155339;23;20260;-73
2023/01/15 11:20:48;;;;;;;3.40;2.30;;;12.90;99.90;;;;;;6155849;23;20687;-73
2023/01/15 11:23:21;;;;;;;5.17;3.23;;;12.90;99.90;;;;;;6093748;23;20161;-73
2023/01/15 11:25:58;;;;;;;4.60;3.17;;;12.90;99.90;;;;;;6117193;23;20629;-73
2023/01/15 11:28:52;;;;;;;5.10;3.63;;;12.90;99.90;;;;;;6117926;23;20180;-73
2023/01/15 11:31:19;;;;;;;6.17;4.30;;;12.90;99.90;;;;;;6112175;23;20530;-73
2023/01/15 11:34:01;;;;;;;8.07;5.00;;;13.00;99.90;;;;;;6152595;23;20419;-73
2023/01/15 11:36:30;;;;;;;9.60;5.40;;;13.00;99.90;;;;;;6118384;23;20169;-73
2023/01/15 11:38:56;;;;;;;8.97;5.60;;;13.00;99.90;;;;;;6154646;23;20574;-73
2023/01/15 11:53:05;;;;;;;8.77;6.13;;;13.20;99.90;;;;;;6119252;23;20160;-73
2023/01/15 11:55:32;;;;;;;8.73;5.90;;;13.20;99.90;;;;;;6140449;23;20161;-73
2023/01/15 11:58:00;;;;;;;11.63;6.30;;;13.20;99.90;;;;;;6154492;23;20152;-73
2023/01/15 12:00:35;;;;;;;10.13;6.13;;;13.20;99.90;;;;;;6117441;23;20184;-73
2023/01/15 12:03:20;;;;;;;9.93;6.40;;;13.20;99.90;;;;;;6116630;23;20486;-73
2023/01/15 12:05:57;;;;;;;9.93;6.07;;;13.20;99.90;;;;;;6117162;23;20796;-73
2023/01/15 12:08:54;;;;;;;9.97;6.30;;;13.20;99.90;;;;;;6120005;23;20562;-73
2023/01/15 12:12:03;;;;;;;8.40;5.63;;;13.20;99.90;;;;;;6157100;23;20153;-73
2023/01/15 12:14:56;;;;;;;8.33;5.40;;;13.20;99.90;;;;;;6118033;23;20153;-73
2023/01/15 12:18:23;;;;;;;12.77;5.87;;;13.20;99.90;;;;;;6152491;23;20172;-73
2023/01/15 12:20:56;;;;;;;8.10;5.40;;;13.20;99.90;;;;;;6060643;23;20674;-72
2023/01/15 12:23:57;;;;;;;9.17;5.53;;;13.20;99.90;;;;;;6153432;23;20168;-73
2023/01/15 12:26:58;;;;;;;6.83;4.80;;;13.20;99.90;;;;;;6118134;23;20189;-73
2023/01/15 12:29:39;;;;;;;7.70;5.10;;;13.20;99.90;;;;;;6085640;23;20979;-73
2023/01/15 12:32:18;;;;;;;8.73;5.30;;;13.20;99.90;;;;;;6115782;23;20217;-73
2023/01/15 12:35:27;;;;;;;7.63;5.13;;;13.20;99.90;;;;;;6153144;23;20597;-73
2023/01/15 12:38:17;;;;;;;7.77;5.10;;;13.10;99.90;;;;;;6154516;23;20172;-73
2023/01/15 12:41:05;;;;;;;7.80;4.70;;;13.10;99.90;;;;;;6144377;23;20161;-72
2023/01/15 12:46:30;;;;;;;7.50;5.03;;;13.10;99.90;;;;;;6154107;23;20761;-73
2023/01/15 12:49:51;;;;;;;8.30;4.57;;;13.10;99.90;;;;;;6118660;23;20244;-73
2023/01/15 12:52:30;;;;;;;7.33;4.63;;;13.10;99.90;;;;;;6120806;23;20165;-73
2023/01/15 12:55:19;;;;;;;8.53;5.33;;;13.10;99.90;;;;;;6119930;23;20503;-73
2023/01/15 12:57:59;;;;;;;7.23;4.80;;;13.10;99.90;;;;;;6156151;23;20149;-73
2023/01/15 13:00:46;;;;;;;8.77;5.03;;;13.10;99.90;;;;;;6157474;23;20161;-73
2023/01/15 13:04:05;;;;;;;6.17;4.93;;;13.10;99.90;;;;;;6095087;23;20203;-73
2023/01/15 13:06:34;;;;;;;6.83;4.87;;;13.10;99.90;;;;;;6155841;23;20199;-73
2023/01/15 13:09:55;;;;;;;8.53;4.90;;;13.10;99.90;;;;;;6121324;23;20204;-73
2023/01/15 13:12:21;;;;;;;6.73;4.93;;;13.10;99.90;;;;;;6157695;23;20153;-73
2023/01/15 13:14:49;;;;;;;7.83;5.00;;;13.10;99.90;;;;;;6120039;23;20196;-73
2023/01/15 13:17:24;;;;;;;7.10;5.20;;;13.10;99.90;;;;;;6118472;23;20183;-73
2023/01/15 13:19:59;;;;;;;8.07;5.63;;;13.10;99.90;;;;;;6120537;23;20627;-73
2023/01/15 13:22:31;;;;;;;8.97;5.80;;;13.10;99.90;;;;;;6156500;23;20161;-73
2023/01/15 13:25:00;;;;;;;7.73;5.70;;;13.10;99.90;;;;;;6120013;23;20169;-73
2023/01/15 13:28:25;;;;;;;7.43;5.67;;;13.10;99.90;;;;;;6156551;23;20248;-73
2023/01/15 13:31:20;;;;;;;8.63;5.23;;;13.10;99.90;;;;;;6105805;23;20164;-73
2023/01/15 13:33:55;;;;;;;7.77;4.23;;;13.10;99.90;;;;;;6121559;23;20168;-73
2023/01/15 13:36:46;;;;;;;4.87;2.40;;;13.10;99.90;;;;;;6094901;23;20163;-73
2023/01/15 13:39:22;;;;;;;4.03;1.60;;;13.00;99.90;;;;;;6145749;23;20212;-73
2023/01/15 13:44:50;;;;;;;3.80;1.00;;;12.90;99.90;;;;;;6120061;23;20157;-73
2023/01/15 13:47:29;;;;;;;3.70;1.50;;;12.80;99.90;;;;;;6157421;23;20189;-73
2023/01/15 13:50:06;;;;;;;6.30;1.50;;;12.70;99.90;;;;;;6147732;23;20176;-73
2023/01/15 13:52:37;;;;;;;3.97;1.30;;;12.60;99.90;;;;;;6157938;23;20161;-73
2023/01/15 13:55:31;;;;;;;5.37;1.40;;;12.50;99.90;;;;;;6121329;23;20303;-73
2023/01/15 13:57:57;;;;;;;2.97;1.50;;;12.40;99.90;;;;;;6156396;23;20172;-73
2023/01/15 14:00:40;;;;;;;1.93;1.30;;;12.20;99.90;;;;;;6095948;23;20268;-73
2023/01/15 14:03:28;;;;;;;4.70;1.67;;;12.20;99.90;;;;;;6154968;23;20157;-73
2023/01/15 14:06:07;;;;;;;7.03;1.80;;;12.20;99.90;;;;;;6120001;23;20173;-73
2023/01/15 14:08:45;;;;;;;2.80;1.60;;;12.20;99.90;;;;;;6121235;23;20678;-73
2023/01/15 14:11:47;;;;;;;2.40;1.57;;;12.20;99.90;;;;;;6121277;23;20160;-73
2023/01/15 14:15:02;;;;;;;6.47;1.47;;;12.10;99.90;;;;;;6156714;23;20168;-73
2023/01/15 14:18:17;;;;;;;3.33;1.30;;;12.10;99.90;;;;;;6095628;23;20176;-73
2023/01/15 14:21:17;;;;;;;3.03;1.30;;;12.00;99.90;;;;;;6155884;23;20171;-73
2023/01/15 14:24:20;;;;;;;3.40;1.53;;;12.00;99.90;;;;;;6120922;23;20164;-73
2023/01/15 14:26:57;;;;;;;3.07;1.20;;;12.00;99.90;;;;;;6156965;23;20235;-73
2023/01/15 14:30:21;;;;;;;3.47;1.53;;;12.00;99.90;;;;;;6121475;23;20161;-73